Time;durP1;ratioP1;P1;durP2;ratioP2;P2;SDS_P1;SDS_P2;PMS_P1;PMS_P2;Temp;Humidity;BMP_temperature;BMP_pressure;BME280_temperature;BME280_humidity;BME280_pressure;Samples;Min_cycle;Max_cycle;Signal;HPM_P1;HPM_P2
2022/11/02 00:00:20;;;;;;;16.85;12.98;;;11.40;99.90;;;;;;5075527;28;20603;-78
2022/11/02 00:02:45;;;;;;;23.65;13.63;;;11.40;99.90;;;;;;5085090;28;20539;-77
2022/11/02 00:05:12;;;;;;;14.00;12.60;;;11.40;99.90;;;;;;5079013;28;20183;-76
2022/11/02 00:07:39;;;;;;;19.45;13.95;;;11.30;99.90;;;;;;5075638;28;20190;-76
2022/11/02 00:10:05;;;;;;;16.25;12.90;;;11.30;99.90;;;;;;5063994;28;20228;-76
2022/11/02 00:12:30;;;;;;;21.63;14.40;;;11.30;99.90;;;;;;5073011;28;20184;-76
2022/11/02 00:14:56;;;;;;;15.85;13.65;;;11.30;99.90;;;;;;5074094;28;20270;-76
2022/11/02 00:17:22;;;;;;;21.63;13.52;;;11.30;99.90;;;;;;5073470;28;20226;-76
2022/11/02 00:19:48;;;;;;;19.10;12.90;;;11.20;99.90;;;;;;5070688;28;20191;-76
2022/11/02 00:22:14;;;;;;;23.08;12.98;;;11.20;99.90;;;;;;5068109;28;20175;-76
2022/11/02 00:24:40;;;;;;;27.55;13.30;;;11.20;99.90;;;;;;5073708;28;20261;-76
2022/11/02 00:27:06;;;;;;;12.98;11.52;;;11.20;99.90;;;;;;5075794;28;20277;-77
2022/11/02 00:29:33;;;;;;;22.08;12.27;;;11.20;99.90;;;;;;5071074;28;20253;-77
2022/11/02 00:31:59;;;;;;;20.38;12.40;;;11.20;99.90;;;;;;5071887;28;20178;-77
2022/11/02 00:34:34;;;;;;;26.38;12.82;;;11.10;99.90;;;;;;5074083;28;20306;-78
2022/11/02 00:36:59;;;;;;;18.95;12.43;;;11.10;99.90;;;;;;5068986;28;20194;-77
2022/11/02 00:39:25;;;;;;;13.38;11.80;;;11.20;99.90;;;;;;5076431;28;20246;-76
2022/11/02 00:41:51;;;;;;;18.83;13.15;;;11.10;99.90;;;;;;5066915;28;20206;-76
2022/11/02 00:44:17;;;;;;;14.00;12.55;;;11.20;99.90;;;;;;5072681;28;20183;-77
2022/11/02 00:46:49;;;;;;;14.23;12.85;;;11.20;99.90;;;;;;5074222;28;20243;-78
2022/11/02 00:49:14;;;;;;;14.88;13.27;;;11.10;99.90;;;;;;5069820;28;20269;-79
2022/11/02 00:51:42;;;;;;;17.17;12.82;;;11.10;99.90;;;;;;5085238;28;20248;-78
2022/11/02 00:54:08;;;;;;;18.52;14.05;;;11.10;99.90;;;;;;5080062;28;20179;-78
2022/11/02 00:56:33;;;;;;;13.10;11.65;;;11.00;99.90;;;;;;5082694;28;20278;-76
2022/11/02 00:58:59;;;;;;;16.98;13.27;;;11.00;99.90;;;;;;5072286;28;20179;-76
2022/11/02 01:01:24;;;;;;;12.90;11.57;;;11.00;99.90;;;;;;5082405;28;20700;-76
2022/11/02 01:03:51;;;;;;;23.92;12.60;;;11.10;99.90;;;;;;5080409;28;20166;-76
2022/11/02 01:06:17;;;;;;;15.48;11.95;;;11.20;99.90;;;;;;5073763;28;20199;-76
2022/11/02 01:08:42;;;;;;;13.23;11.68;;;11.30;99.90;;;;;;5069068;28;20171;-76
2022/11/02 01:11:16;;;;;;;12.80;11.50;;;11.30;99.90;;;;;;5066540;28;20194;-75
2022/11/02 01:13:42;;;;;;;12.68;11.32;;;11.20;99.90;;;;;;5070516;28;20798;-75
2022/11/02 01:16:09;;;;;;;13.63;12.23;;;11.20;99.90;;;;;;5070539;28;20214;-76
2022/11/02 01:18:34;;;;;;;13.32;12.07;;;11.30;99.90;;;;;;5068345;28;20279;-76
2022/11/02 01:21:00;;;;;;;11.80;10.68;;;11.30;99.90;;;;;;5068306;28;20285;-77
2022/11/02 01:23:26;;;;;;;13.50;11.75;;;11.20;99.90;;;;;;5069021;28;20175;-76
2022/11/02 01:25:52;;;;;;;14.00;12.40;;;11.20;99.90;;;;;;5074032;28;20199;-76
2022/11/02 01:28:17;;;;;;;18.42;12.13;;;11.10;99.90;;;;;;5075317;28;20179;-77
2022/11/02 01:30:58;;;;;;;13.10;11.25;;;11.00;99.90;;;;;;5080172;28;20179;-76
2022/11/02 01:33:25;;;;;;;17.38;12.95;;;11.10;99.90;;;;;;5068223;28;20642;-77
2022/11/02 01:35:51;;;;;;;13.02;11.40;;;11.00;99.90;;;;;;5064474;28;20199;-76
2022/11/02 01:38:17;;;;;;;16.80;13.10;;;11.00;99.90;;;;;;5066276;28;20546;-77
2022/11/02 01:40:43;;;;;;;15.07;13.10;;;11.00;99.90;;;;;;5059339;28;20224;-77
2022/11/02 01:43:19;;;;;;;16.40;12.15;;;11.00;99.90;;;;;;5059012;28;20639;-77
2022/11/02 01:45:45;;;;;;;13.48;12.07;;;11.00;99.90;;;;;;5058509;28;20229;-76
2022/11/02 01:48:11;;;;;;;17.27;10.82;;;11.00;99.90;;;;;;5059685;28;20187;-76
2022/11/02 01:50:38;;;;;;;21.33;12.43;;;11.00;99.90;;;;;;5059887;28;20221;-77
2022/11/02 01:53:03;;;;;;;14.32;12.32;;;11.10;99.90;;;;;;5058050;28;20184;-77
2022/11/02 01:55:33;;;;;;;11.73;10.43;;;11.00;99.90;;;;;;5065765;28;20913;-77
2022/11/02 01:58:03;;;;;;;13.57;11.15;;;11.00;99.90;;;;;;5059732;28;20582;-77
2022/11/02 02:00:29;;;;;;;12.60;10.93;;;11.10;99.90;;;;;;5061503;28;20203;-76
2022/11/02 02:03:17;;;;;;;11.65;10.55;;;11.10;99.90;;;;;;5058784;28;20354;-76
2022/11/02 02:05:53;;;;;;;12.50;11.00;;;11.20;99.90;;;;;;5066146;28;20305;-78
2022/11/02 02:08:22;;;;;;;11.43;10.23;;;11.20;99.90;;;;;;5068574;28;20218;-76
2022/11/02 02:10:48;;;;;;;12.07;10.88;;;11.20;99.90;;;;;;5062694;28;20191;-76
2022/11/02 02:13:14;;;;;;;12.88;11.65;;;11.20;99.90;;;;;;5063452;28;20554;-76
2022/11/02 02:15:54;;;;;;;11.20;10.05;;;11.10;99.90;;;;;;5069601;28;20187;-76
2022/11/02 02:18:29;;;;;;;11.90;10.70;;;11.20;99.90;;;;;;5058928;28;20182;-76
2022/11/02 02:20:57;;;;;;;12.25;10.15;;;11.20;99.90;;;;;;5062251;28;20705;-76
2022/11/02 02:23:31;;;;;;;12.32;10.82;;;11.20;99.90;;;;;;5064348;28;20250;-76
2022/11/02 02:26:00;;;;;;;12.80;11.10;;;11.10;99.90;;;;;;5061956;28;20285;-75
2022/11/02 02:28:52;;;;;;;12.88;11.18;;;11.10;99.90;;;;;;5064549;28;20220;-75
2022/11/02 02:31:38;;;;;;;12.13;10.80;;;11.10;99.90;;;;;;5059049;28;20566;-75
2022/11/02 02:34:16;;;;;;;12.65;10.95;;;11.20;99.90;;;;;;5063056;28;20208;-75
2022/11/02 02:37:00;;;;;;;13.00;11.35;;;11.30;99.90;;;;;;5059123;28;20203;-77
2022/11/02 02:39:37;;;;;;;12.90;11.45;;;11.20;99.90;;;;;;5064594;28;20179;-77
2022/11/02 02:42:12;;;;;;;12.73;11.52;;;11.20;99.90;;;;;;5062073;28;20197;-76
2022/11/02 02:44:43;;;;;;;13.23;11.93;;;11.10;99.90;;;;;;5065627;28;20637;-77
2022/11/02 02:47:23;;;;;;;12.20;10.95;;;11.00;99.90;;;;;;5062404;28;20191;-77
2022/11/02 02:49:57;;;;;;;12.57;10.77;;;11.10;99.90;;;;;;5067693;28;20258;-77
2022/11/02 02:52:25;;;;;;;11.55;10.35;;;11.00;99.90;;;;;;5067722;28;20170;-77
2022/11/02 02:54:56;;;;;;;12.15;10.95;;;11.00;99.90;;;;;;5063917;28;20251;-77
2022/11/02 02:57:24;;;;;;;10.98;9.88;;;11.00;99.90;;;;;;5071332;28;20202;-77
2022/11/02 02:59:50;;;;;;;11.50;10.35;;;11.10;99.90;;;;;;5070994;28;20175;-77
2022/11/02 03:02:31;;;;;;;10.88;9.77;;;11.10;99.90;;;;;;5067763;28;20206;-77
2022/11/02 03:04:56;;;;;;;11.15;9.73;;;11.10;99.90;;;;;;5066201;28;20171;-77
2022/11/02 03:07:29;;;;;;;10.13;9.13;;;11.10;99.90;;;;;;5072045;28;20202;-77
2022/11/02 03:10:15;;;;;;;9.57;8.77;;;11.00;99.90;;;;;;5072387;28;20650;-77
2022/11/02 03:12:54;;;;;;;10.80;9.70;;;11.00;99.90;;;;;;5070856;28;20254;-77
2022/11/02 03:15:34;;;;;;;10.38;9.38;;;11.00;99.90;;;;;;5070769;28;20189;-77
2022/11/02 03:18:09;;;;;;;11.70;9.75;;;11.00;99.90;;;;;;5070166;28;20171;-77
2022/11/02 03:20:43;;;;;;;10.45;9.43;;;11.00;99.90;;;;;;5072825;28;20200;-77
2022/11/02 03:23:19;;;;;;;12.05;9.13;;;11.00;99.90;;;;;;5081338;28;20171;-77
2022/11/02 03:25:51;;;;;;;9.57;8.68;;;10.90;99.90;;;;;;5068915;28;20280;-77
2022/11/02 03:28:35;;;;;;;11.32;10.05;;;10.90;99.90;;;;;;5072915;28;20266;-77
2022/11/02 03:31:18;;;;;;;10.48;8.75;;;10.80;99.90;;;;;;5073489;28;20328;-77
2022/11/02 03:33:55;;;;;;;9.25;8.40;;;10.80;99.90;;;;;;5064381;28;20175;-77
2022/11/02 03:36:29;;;;;;;9.95;8.98;;;10.90;99.90;;;;;;5070665;28;20198;-75
2022/11/02 03:39:04;;;;;;;10.07;9.13;;;11.00;99.90;;;;;;5071864;28;20325;-76
2022/11/02 03:41:31;;;;;;;9.43;8.43;;;10.90;99.90;;;;;;5063624;28;20206;-76
2022/11/02 03:44:10;;;;;;;9.45;8.32;;;10.90;99.90;;;;;;5063710;28;20183;-76
2022/11/02 03:46:38;;;;;;;9.93;8.98;;;10.90;99.90;;;;;;5065583;28;20234;-76
2022/11/02 03:49:06;;;;;;;9.05;8.25;;;10.80;99.90;;;;;;5067867;28;20207;-77
2022/11/02 03:51:36;;;;;;;9.95;8.20;;;10.70;99.90;;;;;;5070450;28;20183;-77
2022/11/02 03:54:09;;;;;;;11.70;8.25;;;10.80;99.90;;;;;;5071004;28;20179;-77
2022/11/02 03:56:38;;;;;;;9.00;7.97;;;10.80;99.90;;;;;;5061653;28;20207;-77
2022/11/02 03:59:04;;;;;;;9.55;8.65;;;10.70;99.90;;;;;;5061118;28;20215;-76
2022/11/02 04:01:35;;;;;;;10.02;9.13;;;10.60;99.90;;;;;;5065978;28;20281;-77
2022/11/02 04:04:03;;;;;;;10.05;8.35;;;10.60;99.90;;;;;;5062083;28;20171;-77
2022/11/02 04:06:35;;;;;;;10.00;9.00;;;10.60;99.90;;;;;;5070563;28;20195;-81
2022/11/02 04:09:05;;;;;;;10.32;9.43;;;10.60;99.90;;;;;;5072607;28;20242;-82
2022/11/02 04:14:48;;;;;;;9.45;8.35;;;10.70;99.90;;;;;;5079357;28;20241;-82
2022/11/02 04:20:21;;;;;;;12.02;10.82;;;10.80;99.90;;;;;;5062546;28;20261;-76
2022/11/02 04:25:31;;;;;;;11.25;10.05;;;10.80;99.90;;;;;;5065974;28;20183;-76
2022/11/02 04:28:06;;;;;;;11.48;10.52;;;10.80;99.90;;;;;;5047943;28;20183;-76
2022/11/02 04:30:32;;;;;;;11.32;10.15;;;10.90;99.90;;;;;;5046238;28;20181;-76
2022/11/02 04:35:42;;;;;;;10.52;9.10;;;10.80;99.90;;;;;;5059784;28;20829;-80
2022/11/02 04:41:40;;;;;;;9.52;8.55;;;10.80;99.90;;;;;;5064685;28;20214;-77
2022/11/02 04:43:37;;;;;;;10.82;8.15;;;10.90;99.90;;;;;;5071686;28;20186;-77
2022/11/02 04:46:03;;;;;;;8.88;7.97;;;10.90;99.90;;;;;;5061257;28;20219;-77
2022/11/02 04:48:28;;;;;;;9.07;8.27;;;10.80;99.90;;;;;;5065398;28;20195;-79
2022/11/02 04:50:54;;;;;;;10.10;9.15;;;10.80;99.90;;;;;;5065308;28;20179;-78
2022/11/02 04:53:19;;;;;;;10.23;9.10;;;10.80;99.90;;;;;;5074383;28;20346;-78
2022/11/02 04:55:46;;;;;;;10.07;8.88;;;10.80;99.90;;;;;;5066893;28;20993;-77
2022/11/02 04:58:11;;;;;;;11.05;9.95;;;10.70;99.90;;;;;;5063813;28;20190;-78
2022/11/02 05:00:37;;;;;;;10.50;8.50;;;10.70;99.90;;;;;;5064805;28;20277;-77
2022/11/02 05:03:02;;;;;;;10.75;9.05;;;10.60;99.90;;;;;;5062865;28;20665;-77
2022/11/02 05:05:28;;;;;;;11.13;10.02;;;10.60;99.90;;;;;;5063894;28;20263;-77
2022/11/02 05:07:54;;;;;;;13.27;9.95;;;10.60;99.90;;;;;;5064817;28;20180;-77
2022/11/02 05:10:19;;;;;;;11.65;10.45;;;10.50;99.90;;;;;;5062730;28;20176;-79
2022/11/02 05:12:45;;;;;;;12.23;10.65;;;10.50;99.90;;;;;;5065799;28;20901;-79
2022/11/02 05:15:10;;;;;;;11.32;10.20;;;10.50;99.90;;;;;;5067678;28;20188;-79
2022/11/02 05:17:36;;;;;;;12.02;10.35;;;10.30;99.90;;;;;;5073059;28;20207;-79
2022/11/02 05:20:03;;;;;;;12.25;10.88;;;10.20;99.90;;;;;;5065697;28;20580;-78
2022/11/02 05:22:29;;;;;;;11.30;10.07;;;10.10;99.90;;;;;;5064928;28;20172;-78
2022/11/02 05:24:55;;;;;;;14.05;10.48;;;10.10;99.90;;;;;;5060264;28;20174;-78
2022/11/02 05:27:21;;;;;;;11.07;9.95;;;10.00;99.90;;;;;;5061023;28;20194;-78
2022/11/02 05:29:46;;;;;;;9.77;8.85;;;10.10;99.90;;;;;;5058900;28;20198;-78
2022/11/02 05:32:12;;;;;;;9.55;8.65;;;10.10;99.90;;;;;;5063394;28;20190;-77
2022/11/02 05:34:37;;;;;;;11.20;8.82;;;10.20;99.90;;;;;;5067767;28;20617;-77
2022/11/02 05:37:03;;;;;;;10.70;8.57;;;10.20;99.90;;;;;;5072891;28;20187;-77
2022/11/02 05:39:29;;;;;;;8.70;7.82;;;10.30;99.90;;;;;;5084330;28;20175;-78
2022/11/02 05:41:54;;;;;;;9.25;8.38;;;10.40;99.90;;;;;;5064495;28;20202;-78
2022/11/02 05:44:20;;;;;;;9.55;8.55;;;10.30;99.90;;;;;;5065323;28;20646;-77
2022/11/02 05:46:45;;;;;;;10.57;8.85;;;10.20;99.90;;;;;;5069322;28;20195;-76
2022/11/02 05:49:11;;;;;;;8.70;7.90;;;10.20;99.90;;;;;;5076264;28;20170;-77
2022/11/02 05:51:36;;;;;;;9.40;8.48;;;10.20;99.90;;;;;;5068382;28;20245;-78
2022/11/02 05:54:02;;;;;;;12.05;10.05;;;10.20;99.90;;;;;;5060407;28;20674;-77
2022/11/02 05:56:28;;;;;;;10.60;9.50;;;10.20;99.90;;;;;;5068832;28;20277;-77
2022/11/02 05:58:54;;;;;;;9.57;8.70;;;10.20;99.90;;;;;;5067856;28;20183;-76
2022/11/02 06:01:20;;;;;;;9.77;8.88;;;10.20;99.90;;;;;;5064297;28;20227;-74
2022/11/02 06:03:45;;;;;;;8.35;7.53;;;10.20;99.90;;;;;;5064528;28;20171;-74
2022/11/02 06:06:11;;;;;;;8.35;7.50;;;10.30;99.90;;;;;;5055335;28;20208;-74
2022/11/02 06:08:38;;;;;;;9.45;8.27;;;10.30;99.90;;;;;;5064059;28;20176;-74
2022/11/02 06:11:06;;;;;;;9.32;8.43;;;10.40;99.90;;;;;;5057213;28;20171;-73
2022/11/02 06:13:33;;;;;;;8.77;7.60;;;10.20;99.90;;;;;;5065595;28;20180;-77
2022/11/02 06:15:59;;;;;;;11.75;8.43;;;10.10;99.90;;;;;;5064118;28;20581;-77
2022/11/02 06:18:25;;;;;;;9.13;8.23;;;10.10;99.90;;;;;;5066163;28;20607;-77
2022/11/02 06:20:51;;;;;;;9.27;7.88;;;10.10;99.90;;;;;;5069244;28;20227;-78
2022/11/02 06:23:17;;;;;;;9.77;7.65;;;10.00;99.90;;;;;;5067932;28;20510;-80
2022/11/02 06:25:49;;;;;;;9.68;8.30;;;10.00;99.90;;;;;;5072335;28;20167;-77
2022/11/02 06:28:14;;;;;;;9.32;8.43;;;9.90;99.90;;;;;;5063948;28;20234;-75
2022/11/02 06:30:42;;;;;;;8.40;7.47;;;9.70;99.90;;;;;;5067464;28;20589;-75
2022/11/02 06:33:07;;;;;;;8.77;7.88;;;9.80;99.90;;;;;;5069027;28;20216;-72
2022/11/02 06:35:33;;;;;;;9.18;8.27;;;9.80;99.90;;;;;;5068608;28;20174;-73
2022/11/02 06:37:59;;;;;;;9.80;8.82;;;9.80;99.90;;;;;;5061884;28;20313;-73
2022/11/02 06:40:24;;;;;;;9.10;8.05;;;9.80;99.90;;;;;;5066444;28;20205;-73
2022/11/02 06:42:55;;;;;;;10.48;9.32;;;9.70;99.90;;;;;;5056692;28;20183;-78
2022/11/02 06:45:20;;;;;;;10.50;7.28;;;9.70;99.90;;;;;;5059439;28;20277;-77
2022/11/02 06:47:47;;;;;;;7.75;6.95;;;9.80;99.90;;;;;;5055550;28;20295;-74
2022/11/02 06:50:13;;;;;;;8.48;7.68;;;9.70;99.90;;;;;;5058522;28;20191;-80
2022/11/02 06:52:43;;;;;;;10.75;8.38;;;9.80;99.90;;;;;;5062343;28;20182;-74
2022/11/02 06:55:09;;;;;;;9.85;8.88;;;9.90;99.90;;;;;;5069253;28;20269;-75
2022/11/02 06:57:36;;;;;;;9.45;8.40;;;10.00;99.90;;;;;;5064599;28;20207;-75
2022/11/02 07:00:04;;;;;;;9.55;8.55;;;10.10;99.90;;;;;;5061780;28;20788;-77
2022/11/02 07:02:30;;;;;;;9.30;7.75;;;10.10;99.90;;;;;;5067812;28;20176;-75
2022/11/02 07:04:56;;;;;;;10.40;8.63;;;10.10;99.90;;;;;;5064151;28;20202;-76
2022/11/02 07:07:22;;;;;;;11.07;8.80;;;10.20;99.90;;;;;;5063901;28;20199;-73
2022/11/02 07:09:48;;;;;;;9.68;8.65;;;10.30;99.90;;;;;;5067511;28;20187;-73
2022/11/02 07:12:13;;;;;;;14.32;9.80;;;10.40;99.90;;;;;;5066475;28;20721;-73
2022/11/02 07:14:39;;;;;;;11.02;8.50;;;10.50;99.90;;;;;;5063359;28;20637;-75
2022/11/02 07:17:05;;;;;;;19.70;9.70;;;10.70;99.90;;;;;;5067599;28;20202;-73
2022/11/02 07:19:30;;;;;;;11.77;8.55;;;10.70;99.90;;;;;;5067906;28;20191;-73
2022/11/02 07:21:56;;;;;;;9.35;8.27;;;10.80;99.90;;;;;;5060507;28;20199;-72
2022/11/02 07:24:22;;;;;;;10.32;9.18;;;10.90;99.90;;;;;;5065374;28;20190;-73
2022/11/02 07:26:49;;;;;;;10.57;8.38;;;10.90;99.90;;;;;;5063556;28;20210;-72
2022/11/02 07:29:15;;;;;;;8.32;7.53;;;10.90;99.90;;;;;;5061737;28;20518;-75
2022/11/02 07:31:41;;;;;;;8.40;7.60;;;11.00;99.90;;;;;;5059591;28;20171;-76
2022/11/02 07:34:07;;;;;;;9.63;7.85;;;11.10;99.90;;;;;;5062648;28;20268;-78
2022/11/02 07:36:32;;;;;;;12.63;9.45;;;11.20;99.90;;;;;;5066194;28;20200;-78
2022/11/02 07:38:58;;;;;;;10.75;8.88;;;11.10;99.90;;;;;;5066253;28;20642;-78
2022/11/02 07:41:24;;;;;;;10.43;9.32;;;11.10;99.90;;;;;;5056497;28;20200;-77
2022/11/02 07:43:50;;;;;;;11.45;9.32;;;11.20;99.90;;;;;;5057854;28;20178;-78
2022/11/02 07:46:15;;;;;;;9.75;8.65;;;11.20;99.90;;;;;;5055794;28;20222;-79
2022/11/02 07:48:41;;;;;;;11.75;9.20;;;11.40;99.90;;;;;;5057267;28;20560;-77
2022/11/02 07:51:10;;;;;;;9.32;8.38;;;11.60;99.90;;;;;;5057242;28;20183;-78
2022/11/02 07:54:11;;;;;;;8.55;7.75;;;11.70;99.90;;;;;;5059716;28;20665;-82
2022/11/02 07:56:37;;;;;;;8.95;6.97;;;11.80;99.90;;;;;;5073619;28;20215;-79
2022/11/02 07:59:02;;;;;;;9.48;8.48;;;11.90;99.90;;;;;;5060441;28;20179;-79
2022/11/02 08:01:28;;;;;;;11.77;8.05;;;12.00;99.90;;;;;;5072420;28;20191;-84
2022/11/02 08:03:57;;;;;;;9.02;8.10;;;12.00;99.90;;;;;;5068802;28;20176;-80
2022/11/02 08:06:22;;;;;;;10.10;8.35;;;12.00;99.90;;;;;;5068259;28;20278;-78
2022/11/02 08:08:48;;;;;;;9.40;8.35;;;12.00;99.90;;;;;;5067970;28;20627;-78
2022/11/02 08:11:14;;;;;;;10.98;9.05;;;12.10;99.90;;;;;;5064050;28;20225;-79
2022/11/02 08:13:42;;;;;;;9.85;8.85;;;12.00;99.90;;;;;;5063319;28;20651;-78
2022/11/02 08:16:08;;;;;;;19.58;9.90;;;12.10;99.90;;;;;;5063570;28;20188;-79
2022/11/02 08:18:34;;;;;;;9.30;7.80;;;12.20;99.90;;;;;;5060682;28;20667;-78
2022/11/02 08:21:00;;;;;;;9.75;8.65;;;12.20;99.90;;;;;;5058892;28;20659;-78
2022/11/02 08:23:26;;;;;;;9.48;8.30;;;12.50;99.90;;;;;;5058566;28;20184;-78
2022/11/02 08:25:53;;;;;;;10.30;9.18;;;12.70;99.90;;;;;;5056847;28;20644;-77
2022/11/02 08:28:39;;;;;;;10.43;9.30;;;12.80;99.90;;;;;;5057244;28;20179;-79
2022/11/02 08:31:06;;;;;;;10.60;9.50;;;12.80;99.90;;;;;;5067099;28;20266;-80
2022/11/02 08:33:32;;;;;;;10.20;8.38;;;12.80;99.90;;;;;;5084255;28;20183;-78
2022/11/02 08:36:49;;;;;;;10.10;9.02;;;12.90;99.90;;;;;;5086885;28;20206;-79
2022/11/02 08:39:15;;;;;;;9.68;8.77;;;13.10;99.90;;;;;;5058903;28;20555;-79
2022/11/02 08:42:10;;;;;;;11.63;9.20;;;13.20;99.90;;;;;;5084894;28;20205;-80
2022/11/02 08:44:35;;;;;;;12.90;9.63;;;13.20;99.90;;;;;;5072374;28;20330;-81
2022/11/02 08:47:01;;;;;;;9.45;8.50;;;13.20;99.90;;;;;;5085115;28;20199;-80
2022/11/02 08:49:28;;;;;;;9.38;8.10;;;13.80;99.90;;;;;;5081296;28;20184;-80
2022/11/02 08:52:06;;;;;;;10.80;8.15;;;14.40;99.90;;;;;;5082266;28;20179;-78
2022/11/02 08:54:43;;;;;;;9.55;7.70;;;14.70;99.90;;;;;;5088329;28;20186;-81
2022/11/02 08:57:08;;;;;;;8.25;7.50;;;14.70;99.90;;;;;;5078234;28;20274;-80
2022/11/02 08:59:34;;;;;;;8.73;7.82;;;14.80;99.90;;;;;;5062725;28;20271;-76
2022/11/02 09:02:00;;;;;;;9.32;8.10;;;14.90;99.90;;;;;;5057511;28;20704;-76
2022/11/02 09:04:25;;;;;;;8.30;7.30;;;15.10;99.90;;;;;;5047881;28;20179;-77
2022/11/02 09:06:51;;;;;;;9.52;8.50;;;16.40;99.90;;;;;;5055696;28;21301;-77
2022/11/02 09:09:17;;;;;;;8.25;7.45;;;18.20;99.90;;;;;;5055170;28;20263;-77
2022/11/02 09:11:42;;;;;;;7.80;6.85;;;19.90;99.90;;;;;;5055702;28;20180;-77
2022/11/02 09:14:08;;;;;;;5.97;5.38;;;21.50;99.90;;;;;;5056425;28;20664;-77
2022/11/02 09:16:34;;;;;;;5.82;5.07;;;23.10;99.90;;;;;;5057003;28;20202;-77
2022/11/02 09:19:00;;;;;;;5.35;4.57;;;24.20;96.20;;;;;;5056114;28;20183;-77
2022/11/02 09:21:25;;;;;;;5.25;4.75;;;24.90;92.00;;;;;;5056579;28;20211;-78
2022/11/02 09:23:51;;;;;;;4.43;4.03;;;25.40;88.60;;;;;;5072720;28;20186;-76
2022/11/02 09:26:16;;;;;;;4.70;3.58;;;26.00;82.20;;;;;;5058000;28;20225;-77
2022/11/02 09:28:42;;;;;;;6.13;4.30;;;26.50;78.90;;;;;;5059779;28;20179;-78
2022/11/02 09:31:08;;;;;;;5.68;3.80;;;27.20;74.70;;;;;;5058401;28;20227;-76
2022/11/02 09:33:35;;;;;;;3.90;3.60;;;27.20;72.00;;;;;;5076137;28;20234;-77
2022/11/02 09:36:03;;;;;;;4.43;4.03;;;27.30;71.40;;;;;;5062436;28;20206;-75
2022/11/02 09:38:29;;;;;;;3.92;3.63;;;27.50;71.00;;;;;;5064516;28;20203;-76
2022/11/02 09:40:57;;;;;;;4.65;4.20;;;28.00;69.50;;;;;;5052703;28;20287;-75
2022/11/02 09:43:34;;;;;;;4.32;3.80;;;28.30;68.10;;;;;;5058768;28;20175;-75
2022/11/02 09:46:26;;;;;;;3.78;3.40;;;28.80;65.30;;;;;;5054782;28;20296;-75
2022/11/02 09:48:59;;;;;;;3.38;3.00;;;29.00;63.40;;;;;;5053472;28;20586;-76
2022/11/02 09:51:45;;;;;;;3.58;3.28;;;29.10;63.70;;;;;;5056734;28;20179;-75
2022/11/02 09:54:29;;;;;;;5.00;4.30;;;29.50;61.80;;;;;;5056143;28;20614;-75
2022/11/02 09:57:03;;;;;;;4.53;3.72;;;30.20;60.30;;;;;;5057780;28;20538;-75
2022/11/02 09:59:29;;;;;;;3.83;3.53;;;30.30;60.30;;;;;;5053383;28;20183;-76
2022/11/02 10:02:27;;;;;;;4.38;3.97;;;30.00;60.30;;;;;;5054052;28;20206;-74
2022/11/02 10:05:20;;;;;;;3.55;3.25;;;30.40;59.90;;;;;;5055456;28;20647;-73
2022/11/02 10:08:18;;;;;;;4.30;2.75;;;30.90;59.60;;;;;;5055268;28;20265;-73
2022/11/02 10:11:04;;;;;;;2.47;2.00;;;31.80;57.20;;;;;;5064517;28;20178;-74
2022/11/02 10:13:36;;;;;;;2.13;1.95;;;32.40;55.10;;;;;;5061569;28;20187;-74
2022/11/02 10:16:18;;;;;;;2.63;1.80;;;32.30;54.40;;;;;;5071336;28;20329;-74
2022/11/02 10:18:48;;;;;;;2.22;2.05;;;32.40;53.50;;;;;;5056887;28;20253;-76
2022/11/02 10:21:20;;;;;;;2.38;2.20;;;32.30;54.00;;;;;;5056038;28;20249;-76
2022/11/02 10:23:57;;;;;;;1.88;1.75;;;32.30;53.50;;;;;;5056331;28;20214;-76
2022/11/02 10:26:33;;;;;;;1.80;1.70;;;32.00;53.50;;;;;;5057404;28;20194;-76
2022/11/02 10:29:29;;;;;;;2.13;1.92;;;32.30;53.10;;;;;;5061375;28;20163;-75
2022/11/02 10:31:54;;;;;;;1.60;1.50;;;32.40;53.00;;;;;;5067848;28;20180;-73
2022/11/02 10:34:26;;;;;;;2.17;1.70;;;32.60;51.90;;;;;;5066499;28;20277;-75
2022/11/02 10:37:00;;;;;;;4.55;1.70;;;32.00;52.00;;;;;;5057427;28;20195;-75
2022/11/02 10:39:28;;;;;;;2.55;1.70;;;31.90;52.50;;;;;;5058396;28;20171;-76
2022/11/02 10:41:54;;;;;;;1.98;1.88;;;31.70;52.50;;;;;;5057010;28;20198;-76
2022/11/02 10:44:32;;;;;;;4.40;1.70;;;31.80;52.80;;;;;;5056489;28;20247;-74
2022/11/02 10:47:14;;;;;;;2.92;2.00;;;32.30;51.30;;;;;;5053569;28;20214;-74
2022/11/02 10:49:42;;;;;;;1.73;1.38;;;32.80;51.10;;;;;;5057646;28;20179;-77
2022/11/02 10:52:14;;;;;;;2.63;1.90;;;31.90;51.90;;;;;;5054595;28;20557;-74
2022/11/02 10:54:40;;;;;;;2.63;1.70;;;30.50;54.00;;;;;;5056120;28;20171;-74
2022/11/02 10:57:11;;;;;;;3.85;1.63;;;30.10;54.90;;;;;;5053792;28;20241;-74
2022/11/02 10:59:37;;;;;;;3.17;1.70;;;29.30;55.50;;;;;;5052188;28;20604;-75
2022/11/02 11:02:09;;;;;;;2.70;1.42;;;27.60;56.70;;;;;;5057342;28;20199;-77
2022/11/02 11:04:35;;;;;;;2.10;1.55;;;25.40;60.30;;;;;;5058517;28;20183;-77
2022/11/02 11:07:06;;;;;;;3.03;1.35;;;23.80;63.90;;;;;;5056262;28;20202;-76
2022/11/02 11:09:44;;;;;;;4.25;1.52;;;22.70;67.00;;;;;;5060946;28;20206;-76
2022/11/02 11:12:32;;;;;;;3.25;1.90;;;21.70;70.10;;;;;;5055604;28;20219;-76
2022/11/02 11:15:00;;;;;;;3.97;1.58;;;21.00;73.80;;;;;;5053072;28;20187;-74
2022/11/02 11:17:36;;;;;;;2.95;1.40;;;20.70;75.70;;;;;;5056302;28;20203;-74
2022/11/02 11:20:04;;;;;;;2.92;1.38;;;20.20;77.30;;;;;;5057542;28;20194;-74
2022/11/02 11:22:38;;;;;;;1.55;1.45;;;19.90;77.90;;;;;;5070663;28;20186;-73
2022/11/02 11:25:23;;;;;;;2.10;0.90;;;19.60;80.00;;;;;;5068102;28;20206;-74
2022/11/02 11:27:54;;;;;;;3.33;1.80;;;19.50;81.00;;;;;;5057434;28;20925;-72
2022/11/02 11:30:27;;;;;;;4.78;1.40;;;19.10;82.60;;;;;;5062050;28;20171;-74
2022/11/02 11:32:53;;;;;;;4.05;1.65;;;19.10;85.70;;;;;;5062496;28;20172;-74
2022/11/02 11:35:19;;;;;;;1.42;1.25;;;19.10;85.90;;;;;;5065107;28;20179;-73
2022/11/02 11:37:51;;;;;;;3.70;1.65;;;19.50;84.90;;;;;;5066094;28;20207;-75
2022/11/02 11:40:20;;;;;;;3.15;1.50;;;19.90;82.90;;;;;;5063323;28;20186;-74
2022/11/02 11:42:53;;;;;;;4.05;1.60;;;19.60;83.80;;;;;;5063355;28;20263;-74
2022/11/02 11:45:26;;;;;;;4.05;1.48;;;19.30;85.30;;;;;;5061247;28;20198;-74
2022/11/02 11:48:08;;;;;;;3.42;1.50;;;19.10;86.10;;;;;;5061153;28;20214;-75
2022/11/02 11:50:34;;;;;;;4.88;1.45;;;18.90;87.40;;;;;;5059554;28;20253;-74
2022/11/02 11:53:12;;;;;;;3.15;1.67;;;19.20;87.00;;;;;;5063781;28;20658;-75
2022/11/02 11:55:49;;;;;;;3.45;1.30;;;19.10;86.80;;;;;;5056047;28;20194;-75
2022/11/02 11:58:32;;;;;;;3.55;1.40;;;19.20;87.10;;;;;;5061724;28;20171;-74
2022/11/02 12:01:19;;;;;;;2.58;2.10;;;19.80;86.30;;;;;;5064591;28;20205;-75
2022/11/02 12:03:53;;;;;;;5.72;1.90;;;21.20;82.80;;;;;;5066500;28;20706;-77
2022/11/02 12:06:40;;;;;;;3.33;1.45;;;22.30;81.20;;;;;;5066043;28;20578;-77
2022/11/02 12:09:24;;;;;;;3.22;1.75;;;23.30;77.90;;;;;;5072924;28;20194;-76
2022/11/02 12:11:57;;;;;;;4.47;1.45;;;24.00;73.60;;;;;;5069709;28;20175;-76
2022/11/02 12:14:53;;;;;;;2.60;1.55;;;24.40;71.90;;;;;;5070573;28;20179;-77
2022/11/02 12:17:40;;;;;;;1.67;1.20;;;25.00;70.30;;;;;;5064152;28;20765;-76
2022/11/02 12:20:14;;;;;;;3.25;1.63;;;25.70;67.30;;;;;;5060540;28;20241;-76
2022/11/02 12:23:00;;;;;;;1.83;1.08;;;25.50;67.10;;;;;;5060231;28;20171;-76
2022/11/02 12:25:35;;;;;;;2.78;1.40;;;25.80;66.20;;;;;;5057588;28;20179;-76
2022/11/02 12:28:12;;;;;;;2.63;1.20;;;26.20;65.80;;;;;;5060670;28;20713;-75
2022/11/02 12:31:05;;;;;;;3.20;0.90;;;27.00;63.10;;;;;;5065014;28;20202;-76
2022/11/02 12:33:47;;;;;;;2.50;1.52;;;27.10;61.70;;;;;;5069820;28;20178;-76
2022/11/02 12:36:34;;;;;;;1.65;1.38;;;26.70;61.00;;;;;;5060785;28;20207;-75
2022/11/02 12:39:07;;;;;;;2.42;1.35;;;26.30;61.90;;;;;;5067315;28;20733;-75
2022/11/02 12:41:44;;;;;;;2.97;1.20;;;25.60;63.10;;;;;;5065568;28;20207;-76
2022/11/02 12:44:34;;;;;;;2.33;1.08;;;25.40;63.80;;;;;;5059040;28;20171;-75
2022/11/02 12:47:10;;;;;;;2.28;1.33;;;24.70;64.40;;;;;;5065290;28;20290;-76
2022/11/02 12:49:51;;;;;;;2.00;1.42;;;23.90;66.50;;;;;;5064814;28;20187;-74
2022/11/02 12:52:28;;;;;;;3.10;1.50;;;23.10;67.90;;;;;;5071007;28;20317;-78
2022/11/02 12:55:00;;;;;;;3.22;1.90;;;22.00;71.50;;;;;;5067902;28;20166;-75
2022/11/02 12:57:33;;;;;;;4.40;2.20;;;21.20;74.10;;;;;;5061600;28;20219;-76
2022/11/02 13:00:04;;;;;;;2.50;1.55;;;20.80;75.70;;;;;;5061207;28;20191;-76
2022/11/02 13:02:46;;;;;;;4.10;1.17;;;20.60;77.50;;;;;;5062678;28;20179;-78
2022/11/02 13:05:16;;;;;;;3.13;1.60;;;20.60;76.80;;;;;;5057682;28;20263;-75
2022/11/02 13:07:49;;;;;;;2.60;1.38;;;20.60;77.30;;;;;;5061023;28;20202;-75
2022/11/02 13:10:25;;;;;;;3.50;1.40;;;20.20;77.40;;;;;;5060250;28;20220;-75
2022/11/02 13:12:57;;;;;;;2.13;1.42;;;19.90;78.50;;;;;;5057599;28;20180;-73